Airfield :
LOGIN :

Register | Disclaimer

   EN    FR    IT 

 










Legend :    VFR   Marginal VFR   IFR   Intensive IFR   Very Intensive IFR
Visi :
Ceiling :
>= 8 km
>= 3000ft
5 to 8 km
1000 to 3000 ft
1500m to 5 km
500 to 1000 ft
800 to 1500m
200 to 500 ft
< 800m
< 200 ft
Symbols :   Thunderstorms  Fog  Heavy snow  Heavy precipitations  Wind > 20 kt
SIGMETs :     Misc.  Thunderstorms  Icing  Turbulence  Mountain Waves  Volcanic Ashes






- Airport Elevation : 659 ft
- IATA code : LYN


LFLY - Lyon Bron

CURRENT METAR :
  • 280430Z AUTO 32002KT 9999 SCT054 11/10 Q1022 NOSIG

EXPIRED METARs :
  • 280400Z AUTO 34004KT CAVOK 11/09 Q1022 NOSIG
  • 280330Z AUTO 33004KT CAVOK 11/09 Q1022 NOSIG
  • 280300Z AUTO 34004KT CAVOK 12/09 Q1022 NOSIG
  • 280230Z AUTO 35005KT CAVOK 13/10 Q1022 NOSIG
  • 280200Z AUTO 36004KT 320V020 CAVOK 14/11 Q1022 NOSIG
  • 280130Z AUTO VRB02KT CAVOK 13/11 Q1022 NOSIG
  • 280100Z AUTO 32003KT CAVOK 13/11 Q1022 NOSIG
  • 280030Z AUTO VRB01KT CAVOK 13/13 Q1022 NOSIG
  • 280000Z AUTO VRB01KT CAVOK 13/13 Q1022 NOSIG

TAF TAF LFLY
Valid from the 28 at 00:00 until the 29 at 00:00 UTC


272300Z 2800/2824 32002KT 9999 BKN050
BECMG 2813/2815 CAVOK
BECMG 2820/2822 VRB02KT
ATIS : +33 4 72 15 87 96



MET'MAP, your aeronautical weather chart ! - Copyright ORBIFLY December 2007 - Disclaimer

ORBIFLY MET'MAP TEAM :

Programming & Development : Alexandra Zaïnal
Original concept : Baudouin d'Aumeries
Technical & hardware support : Manuel Goepfert
Assistance : Marc-Olivier Méhu




SOURCES & CREDITS :

   NOAA